Time;durP1;ratioP1;P1;durP2;ratioP2;P2;SDS_P1;SDS_P2;PMS_P1;PMS_P2;Temp;Humidity;BMP_temperature;BMP_pressure;BME280_temperature;BME280_humidity;BME280_pressure;Samples;Min_cycle;Max_cycle;Signal;HPM_P1;HPM_P2
2022/05/14 00:00:16;;;;;;;5.50;3.70;;;14.10;99.90;;;;;;5022644;28;20461;-44
2022/05/14 00:02:44;;;;;;;9.77;4.13;;;14.00;99.90;;;;;;5022366;28;20600;-43
2022/05/14 00:05:10;;;;;;;7.00;4.00;;;14.00;99.90;;;;;;5019389;28;20493;-45
2022/05/14 00:07:37;;;;;;;3.60;2.90;;;14.00;99.90;;;;;;5018493;28;20491;-46
2022/05/14 00:10:05;;;;;;;5.43;4.30;;;14.00;99.90;;;;;;5018281;28;20477;-45
2022/05/14 00:15:16;;;;;;;7.90;5.10;;;13.90;99.90;;;;;;5020263;28;20503;-41
2022/05/14 00:17:44;;;;;;;4.30;3.90;;;13.80;99.90;;;;;;5019436;28;20535;-40
2022/05/14 00:20:12;;;;;;;7.07;4.03;;;13.70;99.90;;;;;;5021251;28;20543;-50
2022/05/14 00:22:39;;;;;;;5.83;3.70;;;13.70;99.90;;;;;;5028062;28;20463;-42
2022/05/14 00:25:07;;;;;;;4.17;3.63;;;13.70;99.90;;;;;;5024577;28;20488;-42
2022/05/14 00:27:34;;;;;;;6.10;3.53;;;13.70;99.90;;;;;;5024649;28;20429;-42
2022/05/14 00:30:00;;;;;;;7.83;4.00;;;13.70;99.90;;;;;;5024447;28;20480;-42
2022/05/14 00:32:27;;;;;;;4.60;3.57;;;13.70;99.90;;;;;;5024001;28;20473;-43
2022/05/14 00:34:55;;;;;;;4.93;4.10;;;13.60;99.90;;;;;;5023703;28;20850;-42
2022/05/14 00:37:22;;;;;;;9.17;4.27;;;13.60;99.90;;;;;;5024164;28;20706;-42
2022/05/14 00:39:48;;;;;;;5.67;3.67;;;13.50;99.90;;;;;;5024083;28;20449;-42
2022/05/14 00:42:15;;;;;;;5.90;3.60;;;13.50;99.90;;;;;;5024160;28;20438;-40
2022/05/14 00:44:42;;;;;;;3.93;3.53;;;13.50;99.90;;;;;;5023892;28;20452;-40
2022/05/14 00:47:14;;;;;;;5.43;3.80;;;13.60;99.90;;;;;;5023923;28;20491;-42
2022/05/14 00:49:41;;;;;;;6.43;3.50;;;13.50;99.90;;;;;;5027599;28;20432;-39
2022/05/14 00:52:14;;;;;;;5.27;4.07;;;13.50;99.90;;;;;;5026689;28;20527;-45
2022/05/14 00:54:49;;;;;;;5.20;3.33;;;13.50;99.90;;;;;;5023762;28;20949;-46
2022/05/14 00:57:19;;;;;;;4.70;4.20;;;13.50;99.90;;;;;;5024460;28;20425;-44
2022/05/14 00:59:46;;;;;;;5.53;3.97;;;13.50;99.90;;;;;;5024365;28;20467;-40
2022/05/14 01:02:13;;;;;;;14.10;4.37;;;13.50;99.90;;;;;;5024491;28;20504;-43
2022/05/14 01:04:42;;;;;;;4.77;3.97;;;13.50;99.90;;;;;;5023691;28;20510;-43
2022/05/14 01:07:16;;;;;;;7.00;4.50;;;13.50;99.90;;;;;;5023995;28;20510;-42
2022/05/14 01:09:46;;;;;;;6.93;3.90;;;13.50;99.90;;;;;;5023990;28;20478;-41
2022/05/14 01:12:15;;;;;;;4.53;3.83;;;13.50;99.90;;;;;;5024170;28;20452;-44
2022/05/14 01:14:43;;;;;;;10.77;4.87;;;13.50;99.90;;;;;;5023886;28;20516;-44
2022/05/14 01:17:10;;;;;;;4.37;3.90;;;13.50;99.90;;;;;;5026946;28;20469;-42
2022/05/14 01:19:37;;;;;;;4.40;4.00;;;13.60;99.90;;;;;;5027616;28;20452;-42
2022/05/14 01:22:15;;;;;;;6.50;4.33;;;13.60;99.90;;;;;;5024029;28;20507;-43
2022/05/14 01:27:36;;;;;;;5.57;3.70;;;13.70;99.90;;;;;;5023787;28;20423;-44
2022/05/14 01:30:03;;;;;;;4.73;3.23;;;13.70;99.90;;;;;;5023705;28;20826;-43
2022/05/14 01:32:30;;;;;;;5.13;3.93;;;13.60;99.90;;;;;;5021086;28;20449;-43
2022/05/14 01:34:57;;;;;;;6.60;3.70;;;13.70;99.90;;;;;;5020489;28;20484;-41
2022/05/14 01:37:24;;;;;;;7.40;4.07;;;13.70;99.90;;;;;;5020438;28;20457;-42
2022/05/14 01:39:51;;;;;;;5.17;4.10;;;13.80;99.90;;;;;;5020494;28;20507;-41
2022/05/14 01:42:18;;;;;;;13.50;4.23;;;13.80;99.90;;;;;;5020788;28;20813;-40
2022/05/14 01:44:46;;;;;;;6.50;4.07;;;13.90;99.90;;;;;;5022803;28;20976;-42
2022/05/14 01:47:13;;;;;;;7.03;4.37;;;13.90;99.90;;;;;;5023762;28;20798;-43
2022/05/14 01:49:40;;;;;;;6.10;3.63;;;13.90;99.90;;;;;;5020497;28;20453;-44
2022/05/14 01:52:07;;;;;;;7.33;3.57;;;13.90;99.90;;;;;;5019983;28;20469;-40
2022/05/14 01:54:34;;;;;;;5.47;3.93;;;13.90;99.90;;;;;;5020252;28;20473;-44
2022/05/14 01:57:01;;;;;;;7.17;4.03;;;14.00;99.90;;;;;;5020201;28;20534;-40
2022/05/14 01:59:27;;;;;;;8.20;3.97;;;14.10;99.90;;;;;;5020154;28;20453;-43
2022/05/14 02:01:55;;;;;;;9.43;3.90;;;14.10;99.90;;;;;;5019961;28;20477;-45
2022/05/14 02:04:22;;;;;;;5.43;4.10;;;14.10;99.90;;;;;;5019982;28;20461;-39
2022/05/14 02:06:49;;;;;;;8.17;4.63;;;14.10;99.90;;;;;;5019651;28;20473;-40
2022/05/14 02:09:16;;;;;;;4.90;4.40;;;14.20;99.90;;;;;;5021585;28;20456;-44
2022/05/14 02:11:43;;;;;;;6.13;4.10;;;14.20;99.90;;;;;;5023507;28;20783;-44
2022/05/14 02:14:11;;;;;;;4.03;3.60;;;14.20;99.90;;;;;;5020668;28;20514;-43
2022/05/14 02:16:38;;;;;;;6.47;4.37;;;14.20;99.90;;;;;;5019587;28;20984;-42
2022/05/14 02:19:06;;;;;;;5.60;4.50;;;14.20;99.90;;;;;;5020727;28;20954;-47
2022/05/14 02:21:34;;;;;;;5.73;4.50;;;14.20;99.90;;;;;;5021166;28;20469;-42
2022/05/14 02:24:01;;;;;;;4.33;3.90;;;14.20;99.90;;;;;;5020775;28;20464;-43
2022/05/14 02:26:28;;;;;;;8.23;5.80;;;14.20;99.90;;;;;;5019536;28;20473;-43
2022/05/14 02:28:55;;;;;;;4.63;4.23;;;14.20;99.90;;;;;;5019856;28;20445;-43
2022/05/14 02:31:22;;;;;;;4.23;3.63;;;14.20;99.90;;;;;;5019531;28;20477;-43
2022/05/14 02:33:49;;;;;;;5.23;3.80;;;14.30;99.90;;;;;;5019606;28;20479;-40
2022/05/14 02:36:18;;;;;;;5.10;3.00;;;14.30;99.90;;;;;;5019228;28;20628;-40
2022/05/14 02:38:45;;;;;;;6.63;3.03;;;14.30;99.90;;;;;;5021551;28;20744;-49
2022/05/14 02:41:13;;;;;;;5.00;3.60;;;14.40;99.90;;;;;;5021904;28;20480;-45
2022/05/14 02:43:40;;;;;;;3.90;3.37;;;14.30;99.90;;;;;;5019275;28;20438;-45
2022/05/14 02:46:07;;;;;;;4.70;3.67;;;14.30;99.90;;;;;;5019223;28;20479;-41
2022/05/14 02:48:35;;;;;;;10.50;3.57;;;14.40;99.90;;;;;;5019191;28;20453;-43
2022/05/14 02:51:02;;;;;;;7.60;3.53;;;14.40;99.90;;;;;;5019335;28;20508;-47
2022/05/14 02:53:32;;;;;;;5.83;3.40;;;14.40;99.90;;;;;;5019027;28;20500;-42
2022/05/14 02:55:59;;;;;;;6.37;3.07;;;14.50;99.90;;;;;;5018964;28;20492;-44
2022/05/14 03:01:09;;;;;;;5.03;2.93;;;14.40;99.90;;;;;;5018984;28;20502;-43
2022/05/14 03:03:37;;;;;;;4.50;3.00;;;14.40;99.90;;;;;;5018775;28;20422;-42
2022/05/14 03:06:04;;;;;;;5.83;3.20;;;14.30;99.90;;;;;;5019699;28;20914;-41
2022/05/14 03:08:32;;;;;;;6.50;3.40;;;14.40;99.90;;;;;;5021730;28;20461;-42
2022/05/14 03:10:59;;;;;;;3.27;2.97;;;14.40;99.90;;;;;;5021562;28;20511;-42
2022/05/14 03:13:26;;;;;;;5.50;3.77;;;14.40;99.90;;;;;;5020500;28;20457;-40
2022/05/14 03:15:53;;;;;;;13.30;3.13;;;14.40;99.90;;;;;;5021144;28;20527;-40
2022/05/14 03:18:20;;;;;;;6.37;4.17;;;14.40;99.90;;;;;;5019326;28;20945;-43
2022/05/14 03:20:47;;;;;;;10.93;3.63;;;14.40;99.90;;;;;;5018877;28;20445;-42
2022/05/14 03:23:15;;;;;;;6.30;2.90;;;14.30;99.90;;;;;;5018224;28;20465;-43
2022/05/14 03:25:43;;;;;;;7.20;4.13;;;14.30;99.90;;;;;;5018295;28;20539;-42
2022/05/14 03:28:10;;;;;;;3.53;3.07;;;14.30;99.90;;;;;;5017997;28;20858;-43
2022/05/14 03:30:37;;;;;;;7.40;4.20;;;14.20;99.90;;;;;;5018292;28;20481;-44
2022/05/14 03:33:04;;;;;;;4.20;3.20;;;14.10;99.90;;;;;;5018415;28;20456;-40
2022/05/14 03:35:31;;;;;;;5.83;3.90;;;14.10;99.90;;;;;;5021145;28;20949;-42
2022/05/14 03:37:57;;;;;;;10.20;3.43;;;14.10;99.90;;;;;;5019337;28;20469;-43
2022/05/14 03:40:24;;;;;;;4.53;3.10;;;14.00;99.90;;;;;;5017831;28;20515;-45
2022/05/14 03:42:52;;;;;;;3.50;2.60;;;14.00;99.90;;;;;;5017637;28;21016;-42
2022/05/14 03:45:19;;;;;;;4.90;2.90;;;14.00;99.90;;;;;;5018037;28;20445;-44
2022/05/14 03:47:46;;;;;;;6.77;3.30;;;14.00;99.90;;;;;;5018181;28;20544;-44
2022/05/14 03:50:13;;;;;;;3.50;2.87;;;13.90;99.90;;;;;;5018344;28;20551;-43
2022/05/14 03:52:40;;;;;;;7.60;3.67;;;13.90;99.90;;;;;;5017781;28;20508;-45
2022/05/14 03:55:07;;;;;;;4.37;3.07;;;13.90;99.90;;;;;;5017408;28;20449;-44
2022/05/14 03:57:33;;;;;;;5.13;3.60;;;13.90;99.90;;;;;;5017620;28;20469;-45
2022/05/14 04:00:02;;;;;;;6.57;3.40;;;13.90;99.90;;;;;;5017404;28;20826;-43
2022/05/14 04:02:29;;;;;;;3.77;3.30;;;13.90;99.90;;;;;;5020611;28;20583;-41
2022/05/14 04:04:56;;;;;;;6.60;3.50;;;13.90;99.90;;;;;;5020824;28;20448;-44
2022/05/14 04:07:22;;;;;;;8.20;3.90;;;13.90;99.90;;;;;;5020711;28;20493;-41
2022/05/14 04:09:49;;;;;;;8.07;4.20;;;13.90;99.90;;;;;;5020556;28;20449;-42
2022/05/14 04:12:16;;;;;;;7.43;3.10;;;13.80;99.90;;;;;;5018455;28;20473;-42
2022/05/14 04:14:43;;;;;;;6.20;3.57;;;13.80;99.90;;;;;;5017571;28;20964;-43
2022/05/14 04:17:11;;;;;;;4.00;3.33;;;13.80;99.90;;;;;;5017560;28;20492;-42
2022/05/14 04:19:37;;;;;;;3.83;3.43;;;13.80;99.90;;;;;;5017880;28;20468;-43
2022/05/14 04:22:05;;;;;;;7.60;3.50;;;13.80;99.90;;;;;;5017641;28;20460;-43
2022/05/14 04:24:32;;;;;;;4.30;3.90;;;13.70;99.90;;;;;;5017800;28;20443;-42
2022/05/14 04:26:59;;;;;;;9.63;3.67;;;13.70;99.90;;;;;;5017633;28;20891;-43
2022/05/14 04:29:26;;;;;;;15.23;4.13;;;13.80;99.90;;;;;;5017692;28;20845;-45
2022/05/14 04:31:53;;;;;;;5.87;3.13;;;13.80;99.90;;;;;;5017537;28;20466;-41
2022/05/14 04:34:21;;;;;;;4.40;3.97;;;13.80;99.90;;;;;;5018710;28;20472;-44
2022/05/14 04:36:47;;;;;;;4.60;3.60;;;13.80;99.90;;;;;;5020946;28;20484;-43
2022/05/14 04:39:14;;;;;;;6.53;3.27;;;13.80;99.90;;;;;;5018828;28;20460;-43
2022/05/14 04:41:41;;;;;;;4.57;3.40;;;13.80;99.90;;;;;;5017615;28;20449;-43
2022/05/14 04:44:08;;;;;;;8.20;4.10;;;13.90;99.90;;;;;;5017932;28;20473;-40
2022/05/14 04:46:36;;;;;;;4.63;3.07;;;13.90;99.90;;;;;;5017317;28;20511;-43
2022/05/14 04:49:03;;;;;;;5.57;4.60;;;13.90;99.90;;;;;;5017985;28;20793;-43
2022/05/14 04:51:32;;;;;;;10.60;4.30;;;13.90;99.90;;;;;;5017986;28;20453;-47
2022/05/14 04:53:59;;;;;;;7.30;3.50;;;14.00;99.90;;;;;;5018371;28;20477;-43
2022/05/14 04:56:25;;;;;;;5.33;3.53;;;14.00;99.90;;;;;;5019011;28;20476;-39
2022/05/14 04:58:52;;;;;;;6.17;3.67;;;14.10;99.90;;;;;;5018931;28;20464;-44
2022/05/14 05:01:19;;;;;;;4.93;3.40;;;14.10;99.90;;;;;;5018297;28;20471;-43
2022/05/14 05:03:45;;;;;;;7.93;3.93;;;14.10;99.90;;;;;;5017255;28;20552;-41
2022/05/14 05:06:14;;;;;;;5.27;4.33;;;14.20;99.90;;;;;;5017494;28;20453;-45
2022/05/14 05:08:42;;;;;;;12.57;3.70;;;14.20;99.90;;;;;;5020331;28;20541;-43
2022/05/14 05:11:09;;;;;;;8.47;4.27;;;14.20;99.90;;;;;;5021045;28;20809;-42
2022/05/14 05:13:37;;;;;;;6.40;3.60;;;14.30;99.90;;;;;;5022515;28;20483;-41
2022/05/14 05:16:04;;;;;;;8.33;3.77;;;14.20;99.90;;;;;;5024084;28;20503;-43
2022/05/14 05:18:31;;;;;;;8.53;3.40;;;14.30;99.90;;;;;;5021879;28;20480;-43
2022/05/14 05:20:58;;;;;;;8.60;3.90;;;14.30;99.90;;;;;;5020594;28;20495;-44
2022/05/14 05:23:26;;;;;;;5.50;3.57;;;14.40;99.90;;;;;;5020661;28;20476;-43
2022/05/14 05:25:55;;;;;;;7.93;3.00;;;14.40;99.90;;;;;;5021035;28;20448;-43
2022/05/14 05:28:22;;;;;;;4.47;2.77;;;14.40;99.90;;;;;;5021103;28;20981;-42
2022/05/14 05:30:49;;;;;;;9.43;3.30;;;14.50;99.90;;;;;;5020889;28;20433;-41
2022/05/14 05:33:18;;;;;;;6.83;2.87;;;14.50;99.90;;;;;;5020632;28;20464;-41
2022/05/14 05:35:44;;;;;;;7.50;3.10;;;14.50;99.90;;;;;;5020744;28;20542;-43
2022/05/14 05:38:11;;;;;;;6.77;3.73;;;14.50;99.90;;;;;;5020082;28;20469;-44
2022/05/14 05:40:38;;;;;;;5.73;3.37;;;14.60;99.90;;;;;;5020795;28;20433;-43
2022/05/14 05:43:08;;;;;;;6.17;2.67;;;14.60;99.90;;;;;;5021856;28;20449;-44
2022/05/14 05:45:36;;;;;;;9.90;3.10;;;14.70;99.90;;;;;;5022855;28;20441;-44
2022/05/14 05:48:03;;;;;;;5.03;2.53;;;14.70;99.90;;;;;;5020178;28;20453;-40
2022/05/14 05:50:30;;;;;;;3.30;2.43;;;14.70;99.90;;;;;;5020070;28;20495;-42
2022/05/14 05:52:57;;;;;;;7.50;2.93;;;14.80;99.90;;;;;;5020370;28;20903;-42
2022/05/14 05:58:09;;;;;;;7.07;3.30;;;14.80;99.90;;;;;;5020408;28;20866;-43
2022/05/14 06:00:36;;;;;;;6.70;2.93;;;14.90;99.90;;;;;;5019939;28;20432;-43
2022/05/14 06:03:03;;;;;;;6.10;2.83;;;15.00;99.90;;;;;;5020072;28;20456;-47
2022/05/14 06:05:30;;;;;;;6.17;3.33;;;15.10;99.90;;;;;;5019810;28;20439;-42
2022/05/14 06:07:56;;;;;;;7.37;3.07;;;15.30;99.90;;;;;;5019710;28;20459;-38
2022/05/14 06:10:24;;;;;;;5.07;3.57;;;15.40;99.90;;;;;;5019358;28;20437;-42
2022/05/14 06:12:51;;;;;;;11.93;4.70;;;15.50;99.90;;;;;;5019942;28;20902;-43
2022/05/14 06:15:20;;;;;;;20.30;3.63;;;15.70;99.90;;;;;;5022832;28;20456;-43
2022/05/14 06:17:47;;;;;;;5.40;2.70;;;15.90;99.90;;;;;;5020498;28;20496;-47
2022/05/14 06:20:15;;;;;;;5.90;3.23;;;15.90;99.90;;;;;;5019444;28;20782;-42
2022/05/14 06:22:43;;;;;;;10.93;3.47;;;16.00;99.90;;;;;;5019293;28;20449;-44
2022/05/14 06:25:10;;;;;;;5.07;3.27;;;16.00;99.90;;;;;;5018885;28;20901;-42
2022/05/14 06:27:37;;;;;;;8.17;3.40;;;16.10;99.90;;;;;;5018773;28;20445;-44
2022/05/14 06:30:05;;;;;;;14.47;3.23;;;16.10;99.90;;;;;;5018651;28;20538;-44
2022/05/14 06:32:33;;;;;;;6.77;2.83;;;16.00;99.90;;;;;;5019276;28;20518;-44
2022/05/14 06:35:00;;;;;;;7.03;4.00;;;16.00;99.90;;;;;;5019131;28;20937;-42
2022/05/14 06:37:26;;;;;;;7.73;3.40;;;15.90;99.90;;;;;;5018847;28;20489;-43
2022/05/14 06:39:53;;;;;;;7.43;3.83;;;15.90;99.90;;;;;;5019325;28;20473;-45
2022/05/14 06:42:22;;;;;;;8.40;3.23;;;15.80;99.90;;;;;;5021925;28;20772;-45
2022/05/14 06:44:49;;;;;;;6.80;3.83;;;15.80;99.90;;;;;;5020989;28;20876;-43
2022/05/14 06:47:16;;;;;;;9.53;3.90;;;15.80;99.90;;;;;;5018553;28;20445;-45
2022/05/14 06:49:44;;;;;;;6.00;2.90;;;15.90;99.90;;;;;;5018963;28;20543;-40
2022/05/14 06:52:14;;;;;;;4.30;3.10;;;16.10;99.90;;;;;;5018677;28;20804;-44
2022/05/14 06:54:43;;;;;;;5.80;2.77;;;16.30;99.90;;;;;;5018273;28;20756;-42
2022/05/14 06:57:10;;;;;;;4.70;2.63;;;16.30;99.90;;;;;;5017883;28;20560;-42
2022/05/14 06:59:37;;;;;;;13.57;3.80;;;16.40;99.90;;;;;;5018150;28;21080;-42
2022/05/14 07:02:05;;;;;;;6.00;3.03;;;16.40;99.90;;;;;;5017998;28;20882;-42
2022/05/14 07:07:18;;;;;;;3.43;3.00;;;16.30;99.90;;;;;;5018672;28;20409;-44
2022/05/14 07:09:45;;;;;;;7.27;2.90;;;16.40;99.90;;;;;;5020650;28;20473;-42
2022/05/14 07:12:12;;;;;;;4.10;2.60;;;16.50;99.90;;;;;;5020714;28;20502;-46
2022/05/14 07:14:40;;;;;;;5.10;3.23;;;16.50;99.90;;;;;;5018201;28;20496;-44
2022/05/14 07:17:08;;;;;;;4.20;3.10;;;16.60;99.90;;;;;;5018152;28;20521;-45
2022/05/14 07:19:36;;;;;;;5.87;3.00;;;16.60;99.90;;;;;;5018089;28;20492;-42
2022/05/14 07:22:03;;;;;;;11.10;3.37;;;16.50;99.90;;;;;;5029118;28;20501;-36
2022/05/14 07:24:35;;;;;;;5.63;3.87;;;16.40;99.90;;;;;;5027733;28;20538;-42
2022/05/14 07:27:04;;;;;;;6.03;2.80;;;16.40;99.90;;;;;;5029071;28;20910;-49
2022/05/14 07:29:32;;;;;;;7.67;2.50;;;16.50;99.90;;;;;;5028012;28;20455;-40
2022/05/14 07:32:01;;;;;;;6.00;3.13;;;16.80;99.90;;;;;;5032846;28;20435;-47
2022/05/14 07:34:36;;;;;;;8.63;3.57;;;17.20;99.90;;;;;;5036194;28;20463;-44
2022/05/14 07:37:08;;;;;;;7.60;2.90;;;17.60;99.90;;;;;;5035456;28;20464;-40
2022/05/14 07:39:41;;;;;;;9.63;3.20;;;17.80;99.90;;;;;;5035629;28;20489;-38
2022/05/14 07:42:12;;;;;;;4.67;3.00;;;18.00;99.90;;;;;;5036089;28;20430;-42
2022/05/14 07:44:45;;;;;;;6.77;2.90;;;18.20;99.90;;;;;;5036596;28;20808;-50
2022/05/14 07:47:13;;;;;;;4.87;3.17;;;18.30;99.90;;;;;;5036945;28;20445;-45
2022/05/14 07:49:45;;;;;;;5.43;2.80;;;18.50;99.90;;;;;;5037163;28;20441;-42
2022/05/14 07:52:13;;;;;;;10.10;3.00;;;19.00;99.90;;;;;;5036117;28;20472;-40
2022/05/14 07:54:41;;;;;;;7.83;4.83;;;19.40;99.90;;;;;;5036314;28;20441;-43
2022/05/14 07:57:10;;;;;;;5.33;3.67;;;19.50;99.90;;;;;;5036050;28;20478;-45
2022/05/14 07:59:37;;;;;;;5.53;4.90;;;19.30;99.90;;;;;;5036414;28;20460;-41
2022/05/14 08:02:05;;;;;;;4.80;2.73;;;19.30;99.90;;;;;;5035768;28;20457;-42
2022/05/14 08:04:32;;;;;;;6.77;2.90;;;19.40;99.90;;;;;;5036208;28;20785;-45
2022/05/14 08:07:01;;;;;;;9.30;3.90;;;19.40;99.90;;;;;;5036235;28;20445;-43
2022/05/14 08:09:30;;;;;;;4.97;3.00;;;19.50;99.90;;;;;;5035756;28;20460;-39
2022/05/14 08:11:59;;;;;;;5.90;3.57;;;19.60;99.90;;;;;;5036323;28;20529;-36
2022/05/14 08:14:29;;;;;;;5.07;3.10;;;19.50;99.90;;;;;;5036183;28;20512;-42
2022/05/14 08:16:56;;;;;;;7.87;3.47;;;19.40;99.90;;;;;;5035664;28;20496;-39
2022/05/14 08:19:28;;;;;;;4.73;3.43;;;19.30;99.90;;;;;;5035954;28;20445;-41
2022/05/14 08:24:40;;;;;;;7.27;3.93;;;19.20;99.90;;;;;;5036490;28;20401;-40
2022/05/14 08:27:13;;;;;;;11.77;5.03;;;19.20;99.90;;;;;;5035788;28;20495;-41
2022/05/14 08:29:40;;;;;;;10.43;3.30;;;19.30;99.90;;;;;;5036511;28;20421;-40
2022/05/14 08:32:07;;;;;;;8.37;5.33;;;19.10;99.90;;;;;;5036317;28;20446;-47
2022/05/14 08:34:38;;;;;;;14.50;7.00;;;18.90;99.90;;;;;;5036603;28;20464;-47
2022/05/14 08:37:06;;;;;;;8.80;3.50;;;18.90;99.90;;;;;;5036360;28;20488;-47
2022/05/14 08:39:34;;;;;;;10.10;4.23;;;19.00;99.90;;;;;;5036922;28;20456;-39
2022/05/14 08:42:01;;;;;;;5.37;3.70;;;18.90;99.90;;;;;;5038062;28;20467;-42
2022/05/14 08:44:33;;;;;;;11.10;3.80;;;18.90;99.90;;;;;;5038481;28;20468;-35
2022/05/14 08:47:06;;;;;;;6.70;2.90;;;18.80;99.90;;;;;;5037635;28;20492;-39
2022/05/14 08:49:43;;;;;;;5.07;3.60;;;18.60;99.90;;;;;;5039197;28;20433;-45
2022/05/14 08:52:18;;;;;;;6.87;3.27;;;18.60;99.90;;;;;;5078887;22;20496;-40
2022/05/14 08:54:45;;;;;;;7.50;3.27;;;18.50;99.90;;;;;;5079127;28;20450;-45
2022/05/14 08:57:18;;;;;;;7.80;3.50;;;18.50;99.90;;;;;;5078398;28;20482;-42
2022/05/14 08:59:56;;;;;;;10.10;3.10;;;18.90;99.90;;;;;;5078634;28;20446;-40
2022/05/14 09:02:26;;;;;;;8.97;4.20;;;19.30;99.90;;;;;;5078712;28;20542;-37
2022/05/14 09:04:58;;;;;;;7.97;3.33;;;19.90;99.90;;;;;;5078877;28;20449;-49
2022/05/14 09:07:25;;;;;;;10.33;3.20;;;20.70;99.90;;;;;;5078995;28;20455;-44
2022/05/14 09:09:53;;;;;;;4.40;2.87;;;21.00;99.90;;;;;;5078563;28;20455;-39
2022/05/14 09:12:23;;;;;;;9.30;3.57;;;20.90;99.90;;;;;;5078683;28;20457;-41
2022/05/14 09:14:57;;;;;;;6.40;3.20;;;21.00;99.90;;;;;;5078635;28;20412;-44
2022/05/14 09:17:28;;;;;;;10.83;3.20;;;21.50;99.90;;;;;;5079319;28;20491;-39
2022/05/14 09:19:56;;;;;;;8.20;3.63;;;22.10;99.90;;;;;;5078992;28;20449;-41
2022/05/14 09:22:37;;;;;;;6.17;3.40;;;23.10;98.20;;;;;;5079027;28;20489;-43
2022/05/14 09:25:13;;;;;;;6.80;2.63;;;23.80;93.60;;;;;;5079367;28;20589;-41
2022/05/14 09:27:45;;;;;;;4.30;2.70;;;24.30;91.30;;;;;;5058336;28;20451;-45
2022/05/14 09:30:24;;;;;;;9.63;3.90;;;24.60;88.80;;;;;;5057807;28;20427;-40
2022/05/14 09:32:50;;;;;;;8.53;2.93;;;24.30;86.40;;;;;;5057876;28;20842;-45
2022/05/14 09:35:20;;;;;;;7.43;2.90;;;23.60;86.10;;;;;;5058983;28;20459;-44
2022/05/14 09:37:47;;;;;;;3.40;2.40;;;23.10;89.90;;;;;;5057387;28;20788;-41
2022/05/14 09:40:21;;;;;;;4.40;2.90;;;22.50;90.10;;;;;;5057689;28;20443;-46
2022/05/14 09:42:51;;;;;;;6.23;2.27;;;21.80;88.90;;;;;;5057448;28;20947;-36
2022/05/14 09:45:28;;;;;;;3.13;2.43;;;21.70;88.50;;;;;;5057022;28;20447;-42
2022/05/14 09:47:55;;;;;;;11.53;3.37;;;21.80;87.80;;;;;;5037519;28;21005;-42
2022/05/14 09:50:31;;;;;;;5.70;2.80;;;21.70;87.40;;;;;;5037811;28;20452;-40
2022/05/14 09:53:03;;;;;;;4.67;2.53;;;21.60;86.70;;;;;;5036475;28;20542;-43
2022/05/14 09:55:50;;;;;;;14.23;2.60;;;22.10;85.70;;;;;;5037705;28;20429;-42
2022/05/14 09:58:25;;;;;;;6.43;2.33;;;22.40;83.60;;;;;;5037060;28;20491;-40
2022/05/14 10:00:59;;;;;;;4.73;2.57;;;22.40;83.10;;;;;;5061833;28;20446;-29
2022/05/14 10:03:45;;;;;;;4.70;2.40;;;22.40;81.70;;;;;;5069187;28;21227;-32
2022/05/14 10:06:25;;;;;;;6.60;2.40;;;22.30;82.10;;;;;;5069642;28;20455;-31
2022/05/14 10:09:09;;;;;;;10.50;3.93;;;22.80;81.00;;;;;;5070870;28;20451;-33
2022/05/14 10:11:40;;;;;;;4.07;2.37;;;22.70;79.20;;;;;;5076123;28;20494;-41
2022/05/14 10:14:20;;;;;;;8.07;3.00;;;22.80;79.30;;;;;;5078395;28;20459;-37
2022/05/14 10:16:59;;;;;;;8.97;2.40;;;22.40;78.60;;;;;;5077800;28;20454;-40
2022/05/14 10:19:47;;;;;;;5.03;2.67;;;21.60;79.80;;;;;;5077805;28;20457;-40
2022/05/14 10:22:26;;;;;;;3.90;2.60;;;21.50;82.00;;;;;;5078636;28;20474;-37
2022/05/14 10:28:02;;;;;;;4.90;2.80;;;22.50;80.30;;;;;;5077116;28;20435;-32
2022/05/14 10:30:40;;;;;;;6.90;3.00;;;23.10;77.20;;;;;;5077190;28;20439;-41
2022/05/14 10:33:17;;;;;;;13.30;3.63;;;23.20;75.70;;;;;;5076505;28;20442;-38
2022/05/14 10:35:53;;;;;;;9.23;2.57;;;22.60;75.30;;;;;;5077643;28;20483;-37
2022/05/14 10:38:25;;;;;;;9.03;3.10;;;21.90;76.30;;;;;;5076213;28;20479;-41
2022/05/14 10:41:00;;;;;;;7.03;2.30;;;21.60;78.90;;;;;;5076874;28;20462;-39
2022/05/14 10:43:42;;;;;;;7.50;3.30;;;22.00;78.90;;;;;;5077942;28;20424;-39
2022/05/14 10:46:10;;;;;;;5.93;3.50;;;22.40;78.00;;;;;;5078152;28;20447;-35
2022/05/14 10:48:47;;;;;;;7.00;3.10;;;22.60;77.80;;;;;;5077045;28;20451;-35
2022/05/14 10:51:23;;;;;;;4.60;2.73;;;22.90;77.10;;;;;;5077372;28;20427;-38
2022/05/14 10:53:50;;;;;;;6.83;2.60;;;22.50;76.00;;;;;;5077180;28;20518;-39
2022/05/14 10:56:25;;;;;;;8.93;2.70;;;22.20;76.40;;;;;;5076505;28;20842;-36
2022/05/14 10:59:01;;;;;;;7.00;2.80;;;21.90;77.60;;;;;;5076287;28;20501;-42
2022/05/14 11:01:31;;;;;;;8.27;3.20;;;21.70;78.70;;;;;;5076779;28;20434;-40
2022/05/14 11:04:09;;;;;;;5.70;2.80;;;21.50;79.50;;;;;;5076482;28;20446;-41
2022/05/14 11:06:51;;;;;;;6.87;3.57;;;21.40;79.90;;;;;;5077607;28;20451;-45
2022/05/14 11:09:21;;;;;;;4.90;3.30;;;21.30;79.80;;;;;;5077102;28;20451;-32
2022/05/14 11:11:50;;;;;;;9.03;3.23;;;21.40;79.20;;;;;;5077741;28;20444;-38
2022/05/14 11:14:17;;;;;;;5.93;3.00;;;21.30;80.30;;;;;;5076477;28;20597;-44
2022/05/14 11:16:49;;;;;;;4.87;2.50;;;21.20;81.20;;;;;;5077574;28;20428;-38
2022/05/14 11:19:27;;;;;;;4.10;2.13;;;21.00;80.60;;;;;;5076255;28;20474;-38
2022/05/14 11:21:55;;;;;;;8.77;3.00;;;20.70;81.70;;;;;;5076534;28;20439;-45
2022/05/14 11:24:35;;;;;;;8.83;2.83;;;20.70;83.60;;;;;;5077034;28;20434;-40
2022/05/14 11:27:06;;;;;;;10.97;3.20;;;20.80;82.80;;;;;;5077441;28;20427;-40
2022/05/14 11:29:49;;;;;;;7.77;3.40;;;20.80;83.30;;;;;;5076562;28;20475;-41
2022/05/14 11:32:21;;;;;;;9.10;2.67;;;20.70;83.90;;;;;;5076574;28;20415;-45
2022/05/14 11:34:56;;;;;;;8.60;3.70;;;20.80;84.10;;;;;;5076316;28;20609;-40
2022/05/14 11:37:35;;;;;;;7.53;2.40;;;20.80;85.40;;;;;;5075745;28;20439;-39
2022/05/14 11:40:15;;;;;;;7.97;2.80;;;21.10;84.40;;;;;;5076068;28;20537;-39
2022/05/14 11:42:45;;;;;;;11.27;3.17;;;21.10;84.30;;;;;;5076721;28;20424;-35
2022/05/14 11:45:16;;;;;;;9.73;3.20;;;21.10;84.00;;;;;;5077180;28;20471;-40
2022/05/14 11:48:03;;;;;;;9.37;3.03;;;21.10;84.40;;;;;;5075867;28;20427;-40
2022/05/14 11:50:35;;;;;;;9.60;2.97;;;21.00;84.00;;;;;;5075947;28;20476;-40
2022/05/14 11:53:13;;;;;;;12.30;3.83;;;20.80;85.10;;;;;;5075488;28;20451;-39
2022/05/14 11:55:50;;;;;;;4.67;2.47;;;20.80;84.70;;;;;;5074697;28;20437;-33
2022/05/14 11:58:22;;;;;;;5.83;3.40;;;20.60;85.00;;;;;;5076887;28;20493;-31
2022/05/14 12:00:53;;;;;;;13.37;2.63;;;20.60;85.30;;;;;;5076606;28;20471;-31
2022/05/14 12:03:23;;;;;;;6.43;3.27;;;20.40;85.30;;;;;;5077469;28;20435;-37
2022/05/14 12:06:02;;;;;;;6.20;2.67;;;20.40;86.30;;;;;;5077567;28;20469;-35
2022/05/14 12:08:49;;;;;;;7.07;2.50;;;20.70;85.00;;;;;;5077068;28;20408;-39
2022/05/14 12:11:30;;;;;;;6.50;2.50;;;21.00;84.40;;;;;;5077147;28;20482;-38
2022/05/14 12:14:10;;;;;;;7.17;3.00;;;21.30;82.60;;;;;;5077156;28;20426;-40
2022/05/14 12:16:41;;;;;;;3.90;2.70;;;21.30;82.60;;;;;;5075740;28;20463;-34
2022/05/14 12:19:16;;;;;;;5.37;2.60;;;21.30;83.50;;;;;;5076794;28;20491;-39
2022/05/14 12:21:51;;;;;;;6.07;2.90;;;21.30;83.20;;;;;;5077486;28;20485;-39
2022/05/14 12:24:20;;;;;;;7.33;2.80;;;21.40;83.00;;;;;;5076794;28;20454;-40
2022/05/14 12:26:50;;;;;;;4.40;2.80;;;21.30;83.00;;;;;;5076526;28;20447;-39
2022/05/14 12:29:20;;;;;;;5.87;3.07;;;21.40;83.20;;;;;;5077636;28;20440;-40
2022/05/14 12:34:40;;;;;;;12.63;3.37;;;21.20;81.90;;;;;;5077741;28;20440;-40
2022/05/14 12:37:18;;;;;;;8.33;2.80;;;21.20;82.80;;;;;;5077283;28;20436;-38
2022/05/14 12:39:45;;;;;;;6.40;3.57;;;21.10;82.30;;;;;;5077190;28;20463;-38
2022/05/14 12:42:13;;;;;;;6.03;2.80;;;21.10;82.60;;;;;;5077121;28;20427;-34
2022/05/14 12:44:44;;;;;;;6.77;2.70;;;21.30;81.80;;;;;;5077465;28;20785;-38
2022/05/14 12:47:21;;;;;;;5.30;2.77;;;21.40;81.50;;;;;;5076995;28;20423;-38
2022/05/14 12:49:47;;;;;;;10.80;3.67;;;21.40;81.70;;;;;;5077187;28;20902;-38
2022/05/14 12:52:18;;;;;;;11.60;3.70;;;21.40;81.00;;;;;;5077008;28;20477;-41
2022/05/14 12:54:51;;;;;;;7.83;3.33;;;21.40;81.40;;;;;;5077327;28;20435;-38
2022/05/14 12:57:19;;;;;;;8.73;3.33;;;21.20;80.70;;;;;;5077171;28;20481;-38
2022/05/14 12:59:46;;;;;;;7.33;3.20;;;21.10;81.70;;;;;;5077373;28;20451;-37
2022/05/14 13:02:16;;;;;;;9.43;2.70;;;21.10;82.00;;;;;;5077289;28;20420;-36
2022/05/14 13:05:02;;;;;;;13.47;3.87;;;21.10;81.20;;;;;;5076930;28;20431;-41
2022/05/14 13:07:31;;;;;;;5.90;2.90;;;21.00;82.10;;;;;;5077125;28;20447;-36
2022/05/14 13:09:58;;;;;;;9.90;3.13;;;21.10;82.70;;;;;;5076913;28;20459;-39
2022/05/14 13:12:28;;;;;;;7.50;3.03;;;21.00;82.60;;;;;;5077235;28;20427;-40
2022/05/14 13:14:57;;;;;;;5.93;3.33;;;21.00;82.60;;;;;;5077126;28;20438;-44
2022/05/14 13:17:31;;;;;;;11.53;3.23;;;21.10;83.20;;;;;;5076992;28;20467;-44
2022/05/14 13:20:00;;;;;;;12.03;3.70;;;21.20;81.90;;;;;;5077167;28;20493;-35